sensor_id;sensor_type;location;lat;lon;timestamp;P1;durP1;ratioP1;P2;durP2;ratioP2
47958;SDS011;33718;50.910;-1.514;2024-02-15T00:01:35;8.63;;;3.25;;
47958;SDS011;33718;50.910;-1.514;2024-02-15T00:03:55;13.40;;;3.72;;
47958;SDS011;33718;50.910;-1.514;2024-02-15T00:05:57;13.20;;;3.88;;
47958;SDS011;33718;50.910;-1.514;2024-02-15T00:07:59;18.88;;;4.10;;
47958;SDS011;33718;50.910;-1.514;2024-02-15T00:10:01;22.60;;;4.75;;
47958;SDS011;33718;50.910;-1.514;2024-02-15T00:14:07;12.45;;;3.20;;
47958;SDS011;33718;50.910;-1.514;2024-02-15T00:16:13;13.13;;;3.38;;
47958;SDS011;33718;50.910;-1.514;2024-02-15T00:18:16;17.17;;;3.15;;
47958;SDS011;33718;50.910;-1.514;2024-02-15T00:20:37;13.18;;;3.15;;
47958;SDS011;33718;50.910;-1.514;2024-02-15T00:22:41;11.18;;;2.50;;
47958;SDS011;33718;50.910;-1.514;2024-02-15T00:24:43;9.18;;;2.17;;
47958;SDS011;33718;50.910;-1.514;2024-02-15T00:26:47;9.15;;;2.40;;
47958;SDS011;33718;50.910;-1.514;2024-02-15T00:28:50;5.35;;;2.05;;
47958;SDS011;33718;50.910;-1.514;2024-02-15T00:30:53;5.93;;;1.85;;
47958;SDS011;33718;50.910;-1.514;2024-02-15T00:32:55;4.78;;;2.20;;
47958;SDS011;33718;50.910;-1.514;2024-02-15T00:34:59;8.15;;;1.88;;
47958;SDS011;33718;50.910;-1.514;2024-02-15T00:37:02;5.50;;;2.08;;
47958;SDS011;33718;50.910;-1.514;2024-02-15T00:39:05;6.72;;;1.50;;
47958;SDS011;33718;50.910;-1.514;2024-02-15T00:41:08;5.32;;;1.60;;
47958;SDS011;33718;50.910;-1.514;2024-02-15T00:43:11;5.55;;;1.80;;
47958;SDS011;33718;50.910;-1.514;2024-02-15T00:45:13;7.45;;;1.52;;
47958;SDS011;33718;50.910;-1.514;2024-02-15T00:47:16;10.02;;;1.90;;
47958;SDS011;33718;50.910;-1.514;2024-02-15T00:49:23;7.85;;;1.70;;
47958;SDS011;33718;50.910;-1.514;2024-02-15T00:51:26;4.20;;;1.33;;
47958;SDS011;33718;50.910;-1.514;2024-02-15T00:53:27;8.80;;;2.22;;
47958;SDS011;33718;50.910;-1.514;2024-02-15T00:55:29;5.35;;;1.90;;
47958;SDS011;33718;50.910;-1.514;2024-02-15T00:57:31;3.72;;;1.45;;
47958;SDS011;33718;50.910;-1.514;2024-02-15T00:59:51;6.28;;;1.70;;
47958;SDS011;33718;50.910;-1.514;2024-02-15T01:01:53;2.90;;;1.63;;
47958;SDS011;33718;50.910;-1.514;2024-02-15T01:03:55;2.55;;;1.30;;
47958;SDS011;33718;50.910;-1.514;2024-02-15T01:05:57;8.45;;;1.90;;
47958;SDS011;33718;50.910;-1.514;2024-02-15T01:07:59;3.58;;;1.38;;
47958;SDS011;33718;50.910;-1.514;2024-02-15T01:10:00;6.13;;;1.65;;
47958;SDS011;33718;50.910;-1.514;2024-02-15T01:12:02;6.55;;;1.10;;
47958;SDS011;33718;50.910;-1.514;2024-02-15T01:14:25;9.05;;;1.65;;
47958;SDS011;33718;50.910;-1.514;2024-02-15T01:16:31;10.27;;;2.17;;
47958;SDS011;33718;50.910;-1.514;2024-02-15T01:18:51;4.82;;;1.02;;
47958;SDS011;33718;50.910;-1.514;2024-02-15T01:20:53;4.03;;;1.20;;
47958;SDS011;33718;50.910;-1.514;2024-02-15T01:22:56;3.42;;;1.40;;
47958;SDS011;33718;50.910;-1.514;2024-02-15T01:24:57;5.25;;;1.90;;
47958;SDS011;33718;50.910;-1.514;2024-02-15T01:26:59;7.55;;;1.25;;
47958;SDS011;33718;50.910;-1.514;2024-02-15T01:29:01;4.47;;;1.88;;
47958;SDS011;33718;50.910;-1.514;2024-02-15T01:31:05;7.93;;;1.88;;
47958;SDS011;33718;50.910;-1.514;2024-02-15T01:33:08;8.45;;;2.05;;
47958;SDS011;33718;50.910;-1.514;2024-02-15T01:35:10;3.25;;;1.50;;
47958;SDS011;33718;50.910;-1.514;2024-02-15T01:37:11;8.80;;;1.88;;
47958;SDS011;33718;50.910;-1.514;2024-02-15T01:39:13;4.78;;;1.95;;
47958;SDS011;33718;50.910;-1.514;2024-02-15T01:41:14;5.80;;;1.90;;
47958;SDS011;33718;50.910;-1.514;2024-02-15T01:43:35;9.85;;;2.10;;
47958;SDS011;33718;50.910;-1.514;2024-02-15T01:45:37;8.50;;;1.88;;
47958;SDS011;33718;50.910;-1.514;2024-02-15T01:47:38;7.15;;;2.05;;
47958;SDS011;33718;50.910;-1.514;2024-02-15T01:49:42;6.57;;;2.22;;
47958;SDS011;33718;50.910;-1.514;2024-02-15T01:51:44;7.03;;;2.17;;
47958;SDS011;33718;50.910;-1.514;2024-02-15T01:53:48;5.60;;;2.40;;
47958;SDS011;33718;50.910;-1.514;2024-02-15T01:55:49;9.75;;;3.38;;
47958;SDS011;33718;50.910;-1.514;2024-02-15T01:57:51;6.97;;;2.38;;
47958;SDS011;33718;50.910;-1.514;2024-02-15T01:59:53;7.70;;;2.53;;
47958;SDS011;33718;50.910;-1.514;2024-02-15T02:01:54;8.55;;;2.53;;
47958;SDS011;33718;50.910;-1.514;2024-02-15T02:03:56;10.93;;;2.72;;
47958;SDS011;33718;50.910;-1.514;2024-02-15T02:05:57;7.85;;;2.53;;
47958;SDS011;33718;50.910;-1.514;2024-02-15T02:08:01;8.30;;;3.33;;
47958;SDS011;33718;50.910;-1.514;2024-02-15T02:10:06;16.48;;;3.78;;
47958;SDS011;33718;50.910;-1.514;2024-02-15T02:12:08;17.83;;;3.83;;
47958;SDS011;33718;50.910;-1.514;2024-02-15T02:14:10;16.70;;;3.15;;
47958;SDS011;33718;50.910;-1.514;2024-02-15T02:16:25;17.13;;;4.72;;
47958;SDS011;33718;50.910;-1.514;2024-02-15T02:18:27;15.98;;;3.60;;
47958;SDS011;33718;50.910;-1.514;2024-02-15T02:20:29;25.25;;;5.30;;
47958;SDS011;33718;50.910;-1.514;2024-02-15T02:22:50;16.02;;;4.72;;
47958;SDS011;33718;50.910;-1.514;2024-02-15T02:25:03;21.83;;;5.10;;
47958;SDS011;33718;50.910;-1.514;2024-02-15T02:29:08;21.55;;;6.97;;
47958;SDS011;33718;50.910;-1.514;2024-02-15T02:31:10;21.00;;;6.95;;
47958;SDS011;33718;50.910;-1.514;2024-02-15T02:33:13;24.13;;;7.10;;
47958;SDS011;33718;50.910;-1.514;2024-02-15T02:35:21;23.75;;;6.45;;
47958;SDS011;33718;50.910;-1.514;2024-02-15T02:37:42;32.40;;;8.80;;
47958;SDS011;33718;50.910;-1.514;2024-02-15T02:40:03;22.90;;;7.18;;
47958;SDS011;33718;50.910;-1.514;2024-02-15T02:42:23;32.92;;;7.07;;
47958;SDS011;33718;50.910;-1.514;2024-02-15T02:44:25;28.20;;;8.25;;
47958;SDS011;33718;50.910;-1.514;2024-02-15T02:46:45;44.22;;;8.13;;
47958;SDS011;33718;50.910;-1.514;2024-02-15T02:49:05;36.90;;;7.47;;
47958;SDS011;33718;50.910;-1.514;2024-02-15T02:51:09;34.55;;;10.15;;
47958;SDS011;33718;50.910;-1.514;2024-02-15T02:53:10;37.15;;;7.40;;
47958;SDS011;33718;50.910;-1.514;2024-02-15T02:55:30;35.42;;;8.65;;
47958;SDS011;33718;50.910;-1.514;2024-02-15T02:57:32;35.08;;;7.82;;
47958;SDS011;33718;50.910;-1.514;2024-02-15T02:59:34;29.00;;;7.35;;
47958;SDS011;33718;50.910;-1.514;2024-02-15T03:01:36;28.33;;;9.00;;
47958;SDS011;33718;50.910;-1.514;2024-02-15T03:03:38;30.55;;;8.02;;
47958;SDS011;33718;50.910;-1.514;2024-02-15T03:05:41;34.58;;;9.05;;
47958;SDS011;33718;50.910;-1.514;2024-02-15T03:07:43;31.73;;;8.88;;
47958;SDS011;33718;50.910;-1.514;2024-02-15T03:10:04;39.75;;;10.18;;
47958;SDS011;33718;50.910;-1.514;2024-02-15T03:12:09;35.63;;;9.30;;
47958;SDS011;33718;50.910;-1.514;2024-02-15T03:14:11;48.88;;;10.55;;
47958;SDS011;33718;50.910;-1.514;2024-02-15T03:16:14;42.97;;;9.65;;
47958;SDS011;33718;50.910;-1.514;2024-02-15T03:18:17;52.65;;;11.20;;
47958;SDS011;33718;50.910;-1.514;2024-02-15T03:22:43;28.77;;;10.95;;
47958;SDS011;33718;50.910;-1.514;2024-02-15T03:24:47;36.70;;;9.52;;
47958;SDS011;33718;50.910;-1.514;2024-02-15T03:27:09;40.17;;;9.55;;
47958;SDS011;33718;50.910;-1.514;2024-02-15T03:29:16;46.30;;;10.70;;
47958;SDS011;33718;50.910;-1.514;2024-02-15T03:33:24;47.67;;;8.88;;
47958;SDS011;33718;50.910;-1.514;2024-02-15T03:35:31;52.65;;;10.15;;
47958;SDS011;33718;50.910;-1.514;2024-02-15T03:37:36;43.50;;;10.18;;
47958;SDS011;33718;50.910;-1.514;2024-02-15T03:39:41;39.95;;;10.88;;
47958;SDS011;33718;50.910;-1.514;2024-02-15T03:42:05;43.40;;;11.05;;
47958;SDS011;33718;50.910;-1.514;2024-02-15T03:44:09;45.97;;;12.40;;
47958;SDS011;33718;50.910;-1.514;2024-02-15T03:46:14;37.05;;;10.32;;
47958;SDS011;33718;50.910;-1.514;2024-02-15T03:48:18;42.40;;;11.68;;
47958;SDS011;33718;50.910;-1.514;2024-02-15T03:50:40;43.45;;;10.77;;
47958;SDS011;33718;50.910;-1.514;2024-02-15T03:52:45;31.88;;;10.73;;
47958;SDS011;33718;50.910;-1.514;2024-02-15T03:54:49;49.03;;;11.77;;
47958;SDS011;33718;50.910;-1.514;2024-02-15T03:56:54;54.05;;;11.85;;
47958;SDS011;33718;50.910;-1.514;2024-02-15T03:59:00;43.28;;;11.27;;
47958;SDS011;33718;50.910;-1.514;2024-02-15T04:01:05;45.58;;;11.20;;
47958;SDS011;33718;50.910;-1.514;2024-02-15T04:03:08;42.30;;;11.50;;
47958;SDS011;33718;50.910;-1.514;2024-02-15T04:05:11;37.72;;;11.00;;
47958;SDS011;33718;50.910;-1.514;2024-02-15T04:07:14;43.03;;;11.25;;
47958;SDS011;33718;50.910;-1.514;2024-02-15T04:09:18;38.57;;;10.23;;
47958;SDS011;33718;50.910;-1.514;2024-02-15T04:11:19;40.63;;;10.70;;
47958;SDS011;33718;50.910;-1.514;2024-02-15T04:13:21;40.60;;;11.05;;
47958;SDS011;33718;50.910;-1.514;2024-02-15T04:15:22;27.63;;;10.05;;
47958;SDS011;33718;50.910;-1.514;2024-02-15T04:17:24;41.75;;;14.80;;
47958;SDS011;33718;50.910;-1.514;2024-02-15T04:19:30;35.50;;;12.68;;
47958;SDS011;33718;50.910;-1.514;2024-02-15T04:21:31;48.25;;;12.13;;
47958;SDS011;33718;50.910;-1.514;2024-02-15T04:23:33;45.65;;;10.63;;
47958;SDS011;33718;50.910;-1.514;2024-02-15T04:25:35;55.45;;;11.43;;
47958;SDS011;33718;50.910;-1.514;2024-02-15T04:27:36;39.13;;;11.40;;
47958;SDS011;33718;50.910;-1.514;2024-02-15T04:29:38;43.90;;;11.68;;
47958;SDS011;33718;50.910;-1.514;2024-02-15T04:31:42;36.83;;;10.40;;
47958;SDS011;33718;50.910;-1.514;2024-02-15T04:34:03;40.22;;;11.88;;
47958;SDS011;33718;50.910;-1.514;2024-02-15T04:36:05;32.55;;;11.55;;
47958;SDS011;33718;50.910;-1.514;2024-02-15T04:38:08;44.63;;;11.05;;
47958;SDS011;33718;50.910;-1.514;2024-02-15T04:40:10;54.45;;;11.23;;
47958;SDS011;33718;50.910;-1.514;2024-02-15T04:42:13;30.77;;;11.02;;
47958;SDS011;33718;50.910;-1.514;2024-02-15T04:44:14;41.28;;;11.90;;
47958;SDS011;33718;50.910;-1.514;2024-02-15T04:46:17;36.30;;;9.82;;
47958;SDS011;33718;50.910;-1.514;2024-02-15T04:48:22;52.67;;;11.85;;
47958;SDS011;33718;50.910;-1.514;2024-02-15T04:50:26;43.97;;;10.40;;
47958;SDS011;33718;50.910;-1.514;2024-02-15T04:52:28;38.15;;;8.95;;
47958;SDS011;33718;50.910;-1.514;2024-02-15T04:54:29;34.42;;;10.10;;
47958;SDS011;33718;50.910;-1.514;2024-02-15T04:56:31;44.88;;;9.90;;
47958;SDS011;33718;50.910;-1.514;2024-02-15T04:58:34;37.65;;;11.88;;
47958;SDS011;33718;50.910;-1.514;2024-02-15T05:00:38;33.97;;;9.27;;
47958;SDS011;33718;50.910;-1.514;2024-02-15T05:02:39;43.80;;;10.13;;
47958;SDS011;33718;50.910;-1.514;2024-02-15T05:04:43;47.45;;;12.70;;
47958;SDS011;33718;50.910;-1.514;2024-02-15T05:06:44;48.97;;;10.75;;
47958;SDS011;33718;50.910;-1.514;2024-02-15T05:08:46;43.92;;;10.70;;
47958;SDS011;33718;50.910;-1.514;2024-02-15T05:10:48;39.60;;;10.50;;
47958;SDS011;33718;50.910;-1.514;2024-02-15T05:12:51;40.58;;;10.15;;
47958;SDS011;33718;50.910;-1.514;2024-02-15T05:15:14;50.15;;;11.32;;
47958;SDS011;33718;50.910;-1.514;2024-02-15T05:17:18;35.83;;;8.77;;
47958;SDS011;33718;50.910;-1.514;2024-02-15T05:19:20;42.03;;;9.50;;
47958;SDS011;33718;50.910;-1.514;2024-02-15T05:21:40;51.83;;;10.02;;
47958;SDS011;33718;50.910;-1.514;2024-02-15T05:23:51;32.83;;;9.77;;
47958;SDS011;33718;50.910;-1.514;2024-02-15T05:25:54;45.28;;;10.65;;
47958;SDS011;33718;50.910;-1.514;2024-02-15T05:27:55;38.50;;;9.18;;
47958;SDS011;33718;50.910;-1.514;2024-02-15T05:29:58;39.15;;;8.57;;
47958;SDS011;33718;50.910;-1.514;2024-02-15T05:32:00;37.22;;;8.75;;
47958;SDS011;33718;50.910;-1.514;2024-02-15T05:34:02;47.47;;;8.45;;
47958;SDS011;33718;50.910;-1.514;2024-02-15T05:36:04;50.75;;;10.23;;
47958;SDS011;33718;50.910;-1.514;2024-02-15T05:38:06;55.63;;;9.50;;
47958;SDS011;33718;50.910;-1.514;2024-02-15T05:40:08;44.38;;;9.20;;
47958;SDS011;33718;50.910;-1.514;2024-02-15T05:42:16;41.67;;;8.45;;
47958;SDS011;33718;50.910;-1.514;2024-02-15T05:44:18;40.58;;;7.97;;
47958;SDS011;33718;50.910;-1.514;2024-02-15T05:46:22;28.80;;;7.10;;
47958;SDS011;33718;50.910;-1.514;2024-02-15T05:48:43;46.65;;;8.98;;
47958;SDS011;33718;50.910;-1.514;2024-02-15T05:50:44;40.10;;;7.45;;
47958;SDS011;33718;50.910;-1.514;2024-02-15T05:53:05;36.15;;;8.60;;
47958;SDS011;33718;50.910;-1.514;2024-02-15T05:57:11;37.95;;;8.25;;
47958;SDS011;33718;50.910;-1.514;2024-02-15T05:59:12;33.40;;;7.75;;
47958;SDS011;33718;50.910;-1.514;2024-02-15T06:03:18;31.10;;;7.22;;
47958;SDS011;33718;50.910;-1.514;2024-02-15T06:05:20;37.95;;;7.85;;
47958;SDS011;33718;50.910;-1.514;2024-02-15T06:07:22;32.28;;;8.00;;
47958;SDS011;33718;50.910;-1.514;2024-02-15T06:09:24;28.88;;;6.90;;
47958;SDS011;33718;50.910;-1.514;2024-02-15T06:11:28;41.17;;;7.53;;
47958;SDS011;33718;50.910;-1.514;2024-02-15T06:13:30;34.22;;;8.05;;
47958;SDS011;33718;50.910;-1.514;2024-02-15T06:15:50;30.92;;;6.78;;
47958;SDS011;33718;50.910;-1.514;2024-02-15T06:18:13;26.98;;;7.18;;
47958;SDS011;33718;50.910;-1.514;2024-02-15T06:20:17;24.42;;;7.03;;
47958;SDS011;33718;50.910;-1.514;2024-02-15T06:22:43;20.50;;;6.45;;
47958;SDS011;33718;50.910;-1.514;2024-02-15T06:24:45;32.30;;;6.88;;
47958;SDS011;33718;50.910;-1.514;2024-02-15T06:26:47;25.23;;;6.50;;
47958;SDS011;33718;50.910;-1.514;2024-02-15T06:28:53;18.70;;;6.07;;
47958;SDS011;33718;50.910;-1.514;2024-02-15T06:31:15;20.73;;;6.18;;
47958;SDS011;33718;50.910;-1.514;2024-02-15T06:33:55;39.03;;;8.38;;
47958;SDS011;33718;50.910;-1.514;2024-02-15T06:36:16;24.63;;;6.53;;
47958;SDS011;33718;50.910;-1.514;2024-02-15T06:38:37;26.33;;;7.28;;
47958;SDS011;33718;50.910;-1.514;2024-02-15T06:40:59;42.33;;;7.32;;
47958;SDS011;33718;50.910;-1.514;2024-02-15T06:43:01;41.15;;;7.63;;
47958;SDS011;33718;50.910;-1.514;2024-02-15T06:45:05;28.40;;;8.90;;
47958;SDS011;33718;50.910;-1.514;2024-02-15T06:47:28;27.95;;;6.85;;
47958;SDS011;33718;50.910;-1.514;2024-02-15T06:49:49;32.72;;;6.18;;
47958;SDS011;33718;50.910;-1.514;2024-02-15T06:52:12;27.85;;;7.95;;
47958;SDS011;33718;50.910;-1.514;2024-02-15T06:54:16;32.20;;;6.07;;
47958;SDS011;33718;50.910;-1.514;2024-02-15T06:56:20;25.35;;;6.55;;
47958;SDS011;33718;50.910;-1.514;2024-02-15T06:58:22;28.70;;;6.22;;
47958;SDS011;33718;50.910;-1.514;2024-02-15T07:00:25;40.45;;;6.85;;
47958;SDS011;33718;50.910;-1.514;2024-02-15T07:02:28;27.40;;;6.35;;
47958;SDS011;33718;50.910;-1.514;2024-02-15T07:04:31;33.90;;;6.45;;
47958;SDS011;33718;50.910;-1.514;2024-02-15T07:06:34;29.17;;;6.40;;
47958;SDS011;33718;50.910;-1.514;2024-02-15T07:08:36;29.48;;;7.28;;
47958;SDS011;33718;50.910;-1.514;2024-02-15T07:10:38;27.88;;;5.97;;
47958;SDS011;33718;50.910;-1.514;2024-02-15T07:12:40;24.58;;;6.28;;
47958;SDS011;33718;50.910;-1.514;2024-02-15T07:14:45;28.88;;;6.25;;
47958;SDS011;33718;50.910;-1.514;2024-02-15T07:16:49;23.30;;;5.40;;
47958;SDS011;33718;50.910;-1.514;2024-02-15T07:19:06;26.45;;;5.72;;
47958;SDS011;33718;50.910;-1.514;2024-02-15T07:21:11;18.63;;;5.55;;
47958;SDS011;33718;50.910;-1.514;2024-02-15T07:23:34;18.13;;;5.57;;
47958;SDS011;33718;50.910;-1.514;2024-02-15T07:25:57;24.55;;;5.65;;
47958;SDS011;33718;50.910;-1.514;2024-02-15T07:28:14;26.42;;;5.90;;
47958;SDS011;33718;50.910;-1.514;2024-02-15T07:30:16;20.92;;;5.32;;
47958;SDS011;33718;50.910;-1.514;2024-02-15T07:32:18;21.90;;;5.47;;
47958;SDS011;33718;50.910;-1.514;2024-02-15T07:34:20;22.90;;;6.45;;
47958;SDS011;33718;50.910;-1.514;2024-02-15T07:36:23;15.95;;;5.47;;
47958;SDS011;33718;50.910;-1.514;2024-02-15T07:38:25;13.55;;;4.65;;
47958;SDS011;33718;50.910;-1.514;2024-02-15T07:40:27;15.25;;;5.45;;
47958;SDS011;33718;50.910;-1.514;2024-02-15T07:42:50;14.00;;;4.95;;
47958;SDS011;33718;50.910;-1.514;2024-02-15T07:44:53;13.20;;;5.28;;
47958;SDS011;33718;50.910;-1.514;2024-02-15T07:46:55;20.13;;;5.80;;
47958;SDS011;33718;50.910;-1.514;2024-02-15T07:49:16;21.23;;;5.72;;
47958;SDS011;33718;50.910;-1.514;2024-02-15T07:51:39;19.20;;;5.40;;
47958;SDS011;33718;50.910;-1.514;2024-02-15T07:53:55;16.95;;;5.00;;
47958;SDS011;33718;50.910;-1.514;2024-02-15T07:56:16;13.88;;;4.57;;
47958;SDS011;33718;50.910;-1.514;2024-02-15T07:58:18;13.93;;;4.88;;
47958;SDS011;33718;50.910;-1.514;2024-02-15T08:00:20;15.70;;;4.97;;
47958;SDS011;33718;50.910;-1.514;2024-02-15T08:02:22;8.93;;;3.45;;
47958;SDS011;33718;50.910;-1.514;2024-02-15T08:04:42;19.73;;;4.50;;
47958;SDS011;33718;50.910;-1.514;2024-02-15T08:06:46;14.70;;;5.07;;
47958;SDS011;33718;50.910;-1.514;2024-02-15T08:08:50;14.18;;;4.75;;
47958;SDS011;33718;50.910;-1.514;2024-02-15T08:11:12;16.02;;;6.63;;
47958;SDS011;33718;50.910;-1.514;2024-02-15T08:13:17;15.93;;;4.95;;
47958;SDS011;33718;50.910;-1.514;2024-02-15T08:15:19;20.17;;;5.57;;
47958;SDS011;33718;50.910;-1.514;2024-02-15T08:17:21;10.70;;;5.45;;
47958;SDS011;33718;50.910;-1.514;2024-02-15T08:19:23;14.35;;;5.45;;
47958;SDS011;33718;50.910;-1.514;2024-02-15T08:21:25;13.50;;;4.28;;
47958;SDS011;33718;50.910;-1.514;2024-02-15T08:23:28;10.57;;;3.83;;
47958;SDS011;33718;50.910;-1.514;2024-02-15T08:25:29;13.00;;;5.13;;
47958;SDS011;33718;50.910;-1.514;2024-02-15T08:27:32;17.57;;;4.23;;
47958;SDS011;33718;50.910;-1.514;2024-02-15T08:29:35;16.27;;;3.28;;
47958;SDS011;33718;50.910;-1.514;2024-02-15T08:31:37;9.00;;;3.65;;
47958;SDS011;33718;50.910;-1.514;2024-02-15T08:33:38;11.27;;;3.20;;
47958;SDS011;33718;50.910;-1.514;2024-02-15T08:35:41;17.35;;;3.25;;
47958;SDS011;33718;50.910;-1.514;2024-02-15T08:37:43;11.32;;;3.33;;
47958;SDS011;33718;50.910;-1.514;2024-02-15T08:39:48;10.18;;;2.45;;
47958;SDS011;33718;50.910;-1.514;2024-02-15T08:42:08;12.52;;;2.55;;
47958;SDS011;33718;50.910;-1.514;2024-02-15T08:44:10;20.02;;;2.78;;
47958;SDS011;33718;50.910;-1.514;2024-02-15T08:48:55;14.05;;;2.78;;
47958;SDS011;33718;50.910;-1.514;2024-02-15T08:50:58;7.93;;;2.38;;
47958;SDS011;33718;50.910;-1.514;2024-02-15T08:53:00;10.73;;;2.63;;
47958;SDS011;33718;50.910;-1.514;2024-02-15T08:55:08;4.60;;;2.38;;
47958;SDS011;33718;50.910;-1.514;2024-02-15T08:57:11;9.57;;;2.53;;
47958;SDS011;33718;50.910;-1.514;2024-02-15T08:59:13;8.90;;;2.25;;
47958;SDS011;33718;50.910;-1.514;2024-02-15T09:01:16;8.40;;;1.98;;
47958;SDS011;33718;50.910;-1.514;2024-02-15T09:03:18;6.65;;;2.38;;
47958;SDS011;33718;50.910;-1.514;2024-02-15T09:05:20;6.25;;;2.22;;
47958;SDS011;33718;50.910;-1.514;2024-02-15T09:07:23;5.38;;;2.25;;
47958;SDS011;33718;50.910;-1.514;2024-02-15T09:11:29;6.78;;;2.17;;
47958;SDS011;33718;50.910;-1.514;2024-02-15T09:13:31;8.27;;;2.58;;
47958;SDS011;33718;50.910;-1.514;2024-02-15T09:17:37;7.43;;;2.00;;
47958;SDS011;33718;50.910;-1.514;2024-02-15T09:19:41;8.02;;;2.30;;
47958;SDS011;33718;50.910;-1.514;2024-02-15T09:22:02;4.05;;;1.73;;
47958;SDS011;33718;50.910;-1.514;2024-02-15T09:24:05;3.88;;;2.20;;
47958;SDS011;33718;50.910;-1.514;2024-02-15T09:26:08;9.07;;;2.50;;
47958;SDS011;33718;50.910;-1.514;2024-02-15T09:28:29;12.85;;;2.67;;
47958;SDS011;33718;50.910;-1.514;2024-02-15T09:30:51;12.60;;;3.45;;
47958;SDS011;33718;50.910;-1.514;2024-02-15T09:32:53;5.65;;;2.25;;
47958;SDS011;33718;50.910;-1.514;2024-02-15T09:34:55;99.97;;;10.30;;
47958;SDS011;33718;50.910;-1.514;2024-02-15T09:36:58;51.00;;;7.10;;
47958;SDS011;33718;50.910;-1.514;2024-02-15T09:39:00;15.98;;;3.08;;
47958;SDS011;33718;50.910;-1.514;2024-02-15T09:41:03;11.10;;;2.40;;
47958;SDS011;33718;50.910;-1.514;2024-02-15T09:43:09;5.50;;;2.25;;
47958;SDS011;33718;50.910;-1.514;2024-02-15T09:45:15;10.13;;;3.03;;
47958;SDS011;33718;50.910;-1.514;2024-02-15T09:47:19;9.85;;;3.78;;
47958;SDS011;33718;50.910;-1.514;2024-02-15T09:49:21;13.00;;;4.72;;
47958;SDS011;33718;50.910;-1.514;2024-02-15T09:51:42;11.68;;;3.42;;
47958;SDS011;33718;50.910;-1.514;2024-02-15T09:53:47;9.88;;;3.83;;
47958;SDS011;33718;50.910;-1.514;2024-02-15T09:55:49;15.38;;;3.30;;
47958;SDS011;33718;50.910;-1.514;2024-02-15T09:57:51;10.38;;;2.72;;
47958;SDS011;33718;50.910;-1.514;2024-02-15T10:00:12;7.00;;;2.88;;
47958;SDS011;33718;50.910;-1.514;2024-02-15T10:02:16;7.03;;;2.30;;
47958;SDS011;33718;50.910;-1.514;2024-02-15T10:04:18;6.70;;;1.88;;
47958;SDS011;33718;50.910;-1.514;2024-02-15T10:06:24;4.22;;;2.10;;
47958;SDS011;33718;50.910;-1.514;2024-02-15T10:08:27;6.50;;;1.85;;
47958;SDS011;33718;50.910;-1.514;2024-02-15T10:10:31;4.85;;;2.38;;
47958;SDS011;33718;50.910;-1.514;2024-02-15T10:12:38;5.38;;;2.72;;
47958;SDS011;33718;50.910;-1.514;2024-02-15T10:14:59;7.65;;;2.33;;
47958;SDS011;33718;50.910;-1.514;2024-02-15T10:17:07;5.57;;;2.03;;
47958;SDS011;33718;50.910;-1.514;2024-02-15T10:19:11;6.68;;;2.10;;
47958;SDS011;33718;50.910;-1.514;2024-02-15T10:21:23;7.80;;;2.33;;
47958;SDS011;33718;50.910;-1.514;2024-02-15T10:23:25;8.13;;;2.42;;
47958;SDS011;33718;50.910;-1.514;2024-02-15T10:25:27;3.80;;;1.98;;
47958;SDS011;33718;50.910;-1.514;2024-02-15T10:27:30;4.95;;;1.92;;
47958;SDS011;33718;50.910;-1.514;2024-02-15T10:29:39;5.95;;;2.05;;
47958;SDS011;33718;50.910;-1.514;2024-02-15T10:31:52;2.90;;;1.40;;
47958;SDS011;33718;50.910;-1.514;2024-02-15T10:33:53;3.55;;;1.85;;
47958;SDS011;33718;50.910;-1.514;2024-02-15T10:36:05;3.60;;;1.90;;
47958;SDS011;33718;50.910;-1.514;2024-02-15T10:38:09;4.43;;;1.73;;
47958;SDS011;33718;50.910;-1.514;2024-02-15T10:40:11;4.78;;;1.98;;
47958;SDS011;33718;50.910;-1.514;2024-02-15T10:42:14;11.87;;;4.10;;
47958;SDS011;33718;50.910;-1.514;2024-02-15T10:44:21;12.75;;;2.50;;
47958;SDS011;33718;50.910;-1.514;2024-02-15T10:46:23;7.65;;;2.00;;
47958;SDS011;33718;50.910;-1.514;2024-02-15T10:48:25;7.53;;;2.10;;
47958;SDS011;33718;50.910;-1.514;2024-02-15T10:50:27;9.57;;;2.33;;
47958;SDS011;33718;50.910;-1.514;2024-02-15T10:52:30;8.90;;;2.50;;
47958;SDS011;33718;50.910;-1.514;2024-02-15T10:54:52;14.75;;;3.15;;
47958;SDS011;33718;50.910;-1.514;2024-02-15T10:56:54;9.93;;;2.70;;
47958;SDS011;33718;50.910;-1.514;2024-02-15T10:59:04;5.35;;;1.88;;
47958;SDS011;33718;50.910;-1.514;2024-02-15T11:01:29;4.05;;;1.98;;
47958;SDS011;33718;50.910;-1.514;2024-02-15T11:05:54;10.70;;;2.03;;
47958;SDS011;33718;50.910;-1.514;2024-02-15T11:07:57;8.18;;;1.45;;
47958;SDS011;33718;50.910;-1.514;2024-02-15T11:09:59;7.45;;;1.63;;
47958;SDS011;33718;50.910;-1.514;2024-02-15T11:12:02;9.50;;;2.15;;
47958;SDS011;33718;50.910;-1.514;2024-02-15T11:14:22;7.78;;;1.75;;
47958;SDS011;33718;50.910;-1.514;2024-02-15T11:16:46;2.28;;;1.23;;
47958;SDS011;33718;50.910;-1.514;2024-02-15T11:18:47;2.13;;;1.33;;
47958;SDS011;33718;50.910;-1.514;2024-02-15T11:21:10;6.60;;;1.60;;
47958;SDS011;33718;50.910;-1.514;2024-02-15T11:23:11;4.50;;;1.00;;
47958;SDS011;33718;50.910;-1.514;2024-02-15T11:25:38;2.58;;;1.20;;
47958;SDS011;33718;50.910;-1.514;2024-02-15T11:28:09;5.13;;;1.67;;
47958;SDS011;33718;50.910;-1.514;2024-02-15T11:30:31;3.58;;;1.35;;
47958;SDS011;33718;50.910;-1.514;2024-02-15T11:32:37;5.90;;;1.42;;
47958;SDS011;33718;50.910;-1.514;2024-02-15T11:34:42;4.88;;;1.23;;
47958;SDS011;33718;50.910;-1.514;2024-02-15T11:37:04;8.30;;;1.30;;
47958;SDS011;33718;50.910;-1.514;2024-02-15T11:39:39;10.23;;;1.52;;
47958;SDS011;33718;50.910;-1.514;2024-02-15T11:41:41;6.28;;;1.17;;
47958;SDS011;33718;50.910;-1.514;2024-02-15T11:45:51;2.92;;;1.00;;
47958;SDS011;33718;50.910;-1.514;2024-02-15T11:47:59;6.55;;;1.67;;
47958;SDS011;33718;50.910;-1.514;2024-02-15T11:50:01;3.17;;;1.00;;
47958;SDS011;33718;50.910;-1.514;2024-02-15T11:52:10;2.47;;;1.00;;
47958;SDS011;33718;50.910;-1.514;2024-02-15T11:54:12;3.60;;;1.00;;
47958;SDS011;33718;50.910;-1.514;2024-02-15T11:56:14;4.35;;;1.30;;
47958;SDS011;33718;50.910;-1.514;2024-02-15T11:58:17;6.43;;;1.65;;
47958;SDS011;33718;50.910;-1.514;2024-02-15T12:00:23;3.28;;;1.10;;
47958;SDS011;33718;50.910;-1.514;2024-02-15T12:02:43;4.95;;;1.17;;
47958;SDS011;33718;50.910;-1.514;2024-02-15T12:05:04;2.63;;;0.98;;
47958;SDS011;33718;50.910;-1.514;2024-02-15T12:07:27;3.13;;;1.13;;
47958;SDS011;33718;50.910;-1.514;2024-02-15T12:09:48;5.78;;;1.25;;
47958;SDS011;33718;50.910;-1.514;2024-02-15T12:12:11;4.80;;;1.10;;
47958;SDS011;33718;50.910;-1.514;2024-02-15T12:14:32;6.82;;;1.45;;
47958;SDS011;33718;50.910;-1.514;2024-02-15T12:17:03;6.25;;;1.30;;
47958;SDS011;33718;50.910;-1.514;2024-02-15T12:19:23;4.47;;;1.45;;
47958;SDS011;33718;50.910;-1.514;2024-02-15T12:21:25;7.80;;;2.08;;
47958;SDS011;33718;50.910;-1.514;2024-02-15T12:23:30;5.35;;;1.35;;
47958;SDS011;33718;50.910;-1.514;2024-02-15T12:25:53;5.80;;;1.80;;
47958;SDS011;33718;50.910;-1.514;2024-02-15T12:28:13;10.93;;;1.75;;
47958;SDS011;33718;50.910;-1.514;2024-02-15T12:30:16;6.95;;;1.73;;
47958;SDS011;33718;50.910;-1.514;2024-02-15T12:32:27;10.32;;;1.67;;
47958;SDS011;33718;50.910;-1.514;2024-02-15T12:34:29;6.75;;;1.55;;
47958;SDS011;33718;50.910;-1.514;2024-02-15T12:36:32;7.80;;;2.10;;
47958;SDS011;33718;50.910;-1.514;2024-02-15T12:39:01;4.68;;;1.42;;
47958;SDS011;33718;50.910;-1.514;2024-02-15T12:41:19;5.22;;;2.20;;
47958;SDS011;33718;50.910;-1.514;2024-02-15T12:43:21;4.97;;;1.20;;
47958;SDS011;33718;50.910;-1.514;2024-02-15T12:45:25;6.95;;;1.30;;
47958;SDS011;33718;50.910;-1.514;2024-02-15T12:47:52;8.82;;;1.40;;
47958;SDS011;33718;50.910;-1.514;2024-02-15T12:49:56;4.38;;;1.42;;